sensor_id;sensor_type;location;lat;lon;timestamp;pressure;altitude;pressure_sealevel;temperature;humidity
75045;BME280;63614;56.026;35.960;2023-07-20T00:01:47;97926.94;;;13.00;79.40
75045;BME280;63614;56.026;35.960;2023-07-20T00:04:13;97931.16;;;13.01;79.43
75045;BME280;63614;56.026;35.960;2023-07-20T00:06:40;97925.44;;;13.04;79.09
75045;BME280;63614;56.026;35.960;2023-07-20T00:09:08;97934.13;;;13.09;79.19
75045;BME280;63614;56.026;35.960;2023-07-20T00:11:36;97928.19;;;13.14;78.72
75045;BME280;63614;56.026;35.960;2023-07-20T00:14:06;97926.38;;;13.15;78.57
75045;BME280;63614;56.026;35.960;2023-07-20T00:16:32;97930.56;;;13.16;78.75
75045;BME280;63614;56.026;35.960;2023-07-20T00:18:58;97926.69;;;13.18;78.55
75045;BME280;63614;56.026;35.960;2023-07-20T00:21:23;97928.44;;;13.13;78.63
75045;BME280;63614;56.026;35.960;2023-07-20T00:23:49;97926.06;;;13.11;78.79
75045;BME280;63614;56.026;35.960;2023-07-20T00:26:15;97942.78;;;13.10;78.75
75045;BME280;63614;56.026;35.960;2023-07-20T00:28:40;97934.94;;;13.10;78.72
75045;BME280;63614;56.026;35.960;2023-07-20T00:31:06;97940.22;;;13.15;78.67
75045;BME280;63614;56.026;35.960;2023-07-20T00:33:32;97938.16;;;13.17;78.66
75045;BME280;63614;56.026;35.960;2023-07-20T00:35:58;97933.00;;;13.22;78.23
75045;BME280;63614;56.026;35.960;2023-07-20T00:38:23;97942.25;;;13.30;78.21
75045;BME280;63614;56.026;35.960;2023-07-20T00:40:49;97935.47;;;13.29;78.48
75045;BME280;63614;56.026;35.960;2023-07-20T00:43:17;97931.13;;;13.35;78.05
75045;BME280;63614;56.026;35.960;2023-07-20T00:45:43;97942.44;;;13.40;77.68
75045;BME280;63614;56.026;35.960;2023-07-20T00:48:12;97929.19;;;13.47;77.56
75045;BME280;63614;56.026;35.960;2023-07-20T00:50:39;97931.84;;;13.52;77.02
75045;BME280;63614;56.026;35.960;2023-07-20T00:53:05;97935.50;;;13.51;77.29
75045;BME280;63614;56.026;35.960;2023-07-20T00:55:32;97934.00;;;13.55;77.23
75045;BME280;63614;56.026;35.960;2023-07-20T00:57:59;97934.22;;;13.54;77.21
75045;BME280;63614;56.026;35.960;2023-07-20T01:00:24;97936.91;;;13.59;77.22
75045;BME280;63614;56.026;35.960;2023-07-20T01:02:51;97932.41;;;13.54;77.34
75045;BME280;63614;56.026;35.960;2023-07-20T01:05:17;97941.09;;;13.60;76.90
75045;BME280;63614;56.026;35.960;2023-07-20T01:07:55;97928.78;;;13.55;77.00
75045;BME280;63614;56.026;35.960;2023-07-20T01:13:35;97940.97;;;13.50;77.16
75045;BME280;63614;56.026;35.960;2023-07-20T01:16:04;97946.19;;;13.50;77.45
75045;BME280;63614;56.026;35.960;2023-07-20T01:18:29;97934.94;;;13.49;77.47
75045;BME280;63614;56.026;35.960;2023-07-20T01:21:09;97939.41;;;13.49;77.56
75045;BME280;63614;56.026;35.960;2023-07-20T01:29:03;97934.19;;;13.49;77.97
75045;BME280;63614;56.026;35.960;2023-07-20T01:31:33;97941.03;;;13.55;78.32
75045;BME280;63614;56.026;35.960;2023-07-20T01:34:01;97947.53;;;13.74;77.47
75045;BME280;63614;56.026;35.960;2023-07-20T01:36:29;97947.66;;;13.85;76.89
75045;BME280;63614;56.026;35.960;2023-07-20T01:38:56;97943.97;;;13.80;77.20
75045;BME280;63614;56.026;35.960;2023-07-20T01:41:22;97949.53;;;13.89;76.86
75045;BME280;63614;56.026;35.960;2023-07-20T01:43:48;97947.81;;;14.22;75.43
75045;BME280;63614;56.026;35.960;2023-07-20T01:46:15;97948.22;;;14.63;74.19
75045;BME280;63614;56.026;35.960;2023-07-20T01:48:41;97952.31;;;14.86;72.89
75045;BME280;63614;56.026;35.960;2023-07-20T01:51:08;97939.66;;;15.11;71.96
75045;BME280;63614;56.026;35.960;2023-07-20T01:53:33;97944.06;;;15.48;70.62
75045;BME280;63614;56.026;35.960;2023-07-20T01:55:59;97944.50;;;15.82;69.40
75045;BME280;63614;56.026;35.960;2023-07-20T01:58:25;97948.53;;;16.21;68.18
75045;BME280;63614;56.026;35.960;2023-07-20T02:00:51;97946.97;;;16.20;67.77
75045;BME280;63614;56.026;35.960;2023-07-20T02:03:17;97943.28;;;16.10;67.98
75045;BME280;63614;56.026;35.960;2023-07-20T02:05:42;97953.13;;;15.83;68.90
75045;BME280;63614;56.026;35.960;2023-07-20T02:08:09;97948.09;;;15.76;69.45
75045;BME280;63614;56.026;35.960;2023-07-20T02:10:35;97948.47;;;15.95;69.00
75045;BME280;63614;56.026;35.960;2023-07-20T02:13:04;97943.84;;;16.38;67.59
75045;BME280;63614;56.026;35.960;2023-07-20T02:15:29;97945.69;;;16.63;66.76
75045;BME280;63614;56.026;35.960;2023-07-20T02:17:58;97944.66;;;16.44;67.03
75045;BME280;63614;56.026;35.960;2023-07-20T02:20:24;97949.34;;;16.21;67.77
75045;BME280;63614;56.026;35.960;2023-07-20T02:22:49;97951.31;;;15.78;68.94
75045;BME280;63614;56.026;35.960;2023-07-20T02:25:15;97956.47;;;15.68;69.71
75045;BME280;63614;56.026;35.960;2023-07-20T02:27:41;97953.84;;;15.68;69.84
75045;BME280;63614;56.026;35.960;2023-07-20T02:30:07;97948.44;;;15.90;69.46
75045;BME280;63614;56.026;35.960;2023-07-20T02:32:35;97939.19;;;15.72;69.45
75045;BME280;63614;56.026;35.960;2023-07-20T02:35:00;97950.50;;;15.83;69.44
75045;BME280;63614;56.026;35.960;2023-07-20T02:37:26;97949.88;;;15.65;69.59
75045;BME280;63614;56.026;35.960;2023-07-20T02:39:52;97948.09;;;15.76;69.35
75045;BME280;63614;56.026;35.960;2023-07-20T02:42:17;97946.09;;;15.88;69.32
75045;BME280;63614;56.026;35.960;2023-07-20T02:44:43;97950.47;;;15.72;69.20
75045;BME280;63614;56.026;35.960;2023-07-20T02:47:09;97948.47;;;15.95;68.77
75045;BME280;63614;56.026;35.960;2023-07-20T02:49:34;97950.31;;;15.89;68.82
75045;BME280;63614;56.026;35.960;2023-07-20T02:52:00;97949.59;;;16.25;67.72
75045;BME280;63614;56.026;35.960;2023-07-20T02:54:26;97953.28;;;16.34;67.42
75045;BME280;63614;56.026;35.960;2023-07-20T02:56:54;97951.47;;;16.76;66.21
75045;BME280;63614;56.026;35.960;2023-07-20T02:59:20;97958.06;;;16.88;65.54
75045;BME280;63614;56.026;35.960;2023-07-20T03:01:46;97958.84;;;16.79;65.59
75045;BME280;63614;56.026;35.960;2023-07-20T03:04:11;97955.94;;;16.96;64.78
75045;BME280;63614;56.026;35.960;2023-07-20T03:06:40;97951.75;;;17.00;64.79
75045;BME280;63614;56.026;35.960;2023-07-20T03:09:06;97961.75;;;16.98;65.11
75045;BME280;63614;56.026;35.960;2023-07-20T03:11:32;97959.63;;;16.89;65.27
75045;BME280;63614;56.026;35.960;2023-07-20T03:13:59;97965.69;;;16.90;64.88
75045;BME280;63614;56.026;35.960;2023-07-20T03:16:25;97959.88;;;16.88;64.83
75045;BME280;63614;56.026;35.960;2023-07-20T03:18:52;97964.91;;;17.96;62.13
75045;BME280;63614;56.026;35.960;2023-07-20T03:21:24;97974.03;;;18.93;59.25
75045;BME280;63614;56.026;35.960;2023-07-20T03:23:50;97963.94;;;20.21;54.80
75045;BME280;63614;56.026;35.960;2023-07-20T03:26:16;97972.28;;;20.99;52.06
75045;BME280;63614;56.026;35.960;2023-07-20T03:28:42;97967.34;;;21.39;50.79
75045;BME280;63614;56.026;35.960;2023-07-20T03:31:09;97976.06;;;22.09;48.15
75045;BME280;63614;56.026;35.960;2023-07-20T03:33:40;97971.38;;;22.65;47.26
75045;BME280;63614;56.026;35.960;2023-07-20T03:36:06;97968.28;;;23.17;45.89
75045;BME280;63614;56.026;35.960;2023-07-20T03:38:34;97974.03;;;23.51;44.98
75045;BME280;63614;56.026;35.960;2023-07-20T03:41:00;97976.28;;;23.75;44.09
75045;BME280;63614;56.026;35.960;2023-07-20T03:43:27;97971.25;;;24.22;42.73
75045;BME280;63614;56.026;35.960;2023-07-20T03:45:54;97973.91;;;24.75;41.35
75045;BME280;63614;56.026;35.960;2023-07-20T03:48:24;97976.22;;;24.50;41.95
75045;BME280;63614;56.026;35.960;2023-07-20T03:50:51;97979.22;;;25.22;40.01
75045;BME280;63614;56.026;35.960;2023-07-20T03:53:17;97979.03;;;25.74;39.10
75045;BME280;63614;56.026;35.960;2023-07-20T03:55:50;97974.09;;;26.15;37.15
75045;BME280;63614;56.026;35.960;2023-07-20T03:58:17;97979.81;;;26.26;37.10
75045;BME280;63614;56.026;35.960;2023-07-20T04:00:46;97975.97;;;26.15;37.84
75045;BME280;63614;56.026;35.960;2023-07-20T04:03:13;97979.97;;;26.63;36.72
75045;BME280;63614;56.026;35.960;2023-07-20T04:05:38;97981.72;;;26.80;36.43
75045;BME280;63614;56.026;35.960;2023-07-20T04:08:04;97976.25;;;27.22;35.19
75045;BME280;63614;56.026;35.960;2023-07-20T04:10:30;97983.28;;;27.51;34.37
75045;BME280;63614;56.026;35.960;2023-07-20T04:12:56;97979.25;;;27.82;34.08
75045;BME280;63614;56.026;35.960;2023-07-20T04:15:21;97989.09;;;28.31;32.77
75045;BME280;63614;56.026;35.960;2023-07-20T04:17:47;97978.78;;;28.45;31.51
75045;BME280;63614;56.026;35.960;2023-07-20T04:20:13;97978.03;;;28.04;31.88
75045;BME280;63614;56.026;35.960;2023-07-20T04:22:39;97976.88;;;28.46;32.65
75045;BME280;63614;56.026;35.960;2023-07-20T04:25:07;97982.25;;;28.18;32.40
75045;BME280;63614;56.026;35.960;2023-07-20T04:27:36;97981.19;;;28.22;32.08
75045;BME280;63614;56.026;35.960;2023-07-20T04:30:02;97984.28;;;28.37;31.85
75045;BME280;63614;56.026;35.960;2023-07-20T04:32:29;97984.91;;;29.50;30.22
75045;BME280;63614;56.026;35.960;2023-07-20T04:34:56;97971.31;;;29.59;29.59
75045;BME280;63614;56.026;35.960;2023-07-20T04:37:22;97969.81;;;29.94;30.23
75045;BME280;63614;56.026;35.960;2023-07-20T04:39:48;97981.13;;;30.03;29.38
75045;BME280;63614;56.026;35.960;2023-07-20T04:42:15;97979.56;;;29.34;30.49
75045;BME280;63614;56.026;35.960;2023-07-20T04:44:41;97978.56;;;28.95;30.81
75045;BME280;63614;56.026;35.960;2023-07-20T04:47:08;97981.94;;;28.07;32.12
75045;BME280;63614;56.026;35.960;2023-07-20T04:49:36;97984.94;;;27.81;33.26
75045;BME280;63614;56.026;35.960;2023-07-20T04:52:02;97988.75;;;27.67;33.20
75045;BME280;63614;56.026;35.960;2023-07-20T04:54:29;97987.13;;;28.16;32.29
75045;BME280;63614;56.026;35.960;2023-07-20T04:56:55;97987.22;;;29.04;31.06
75045;BME280;63614;56.026;35.960;2023-07-20T04:59:21;97981.56;;;29.89;29.84
75045;BME280;63614;56.026;35.960;2023-07-20T05:01:47;97979.84;;;29.97;30.46
75045;BME280;63614;56.026;35.960;2023-07-20T05:04:13;97981.25;;;30.69;28.75
75045;BME280;63614;56.026;35.960;2023-07-20T05:06:39;97988.53;;;30.10;30.04
75045;BME280;63614;56.026;35.960;2023-07-20T05:09:05;97983.03;;;30.84;28.63
75045;BME280;63614;56.026;35.960;2023-07-20T05:11:32;97987.69;;;31.07;28.89
75045;BME280;63614;56.026;35.960;2023-07-20T05:13:59;97980.00;;;31.05;27.56
75045;BME280;63614;56.026;35.960;2023-07-20T05:16:25;97992.50;;;31.21;27.68
75045;BME280;63614;56.026;35.960;2023-07-20T05:18:51;97976.41;;;31.21;28.44
75045;BME280;63614;56.026;35.960;2023-07-20T05:21:17;97975.97;;;31.42;27.70
75045;BME280;63614;56.026;35.960;2023-07-20T05:23:43;97976.66;;;31.12;27.83
75045;BME280;63614;56.026;35.960;2023-07-20T05:26:12;97982.31;;;32.10;26.71
75045;BME280;63614;56.026;35.960;2023-07-20T05:28:40;97974.56;;;31.78;27.02
75045;BME280;63614;56.026;35.960;2023-07-20T05:31:06;97985.88;;;32.18;26.23
75045;BME280;63614;56.026;35.960;2023-07-20T05:33:32;97977.03;;;31.60;26.82
75045;BME280;63614;56.026;35.960;2023-07-20T05:35:58;97975.50;;;31.59;27.36
75045;BME280;63614;56.026;35.960;2023-07-20T05:38:28;97984.34;;;31.90;27.10
75045;BME280;63614;56.026;35.960;2023-07-20T05:40:59;97982.31;;;31.53;27.59
75045;BME280;63614;56.026;35.960;2023-07-20T05:43:26;97978.50;;;31.31;27.30
75045;BME280;63614;56.026;35.960;2023-07-20T05:45:51;97980.56;;;30.52;28.11
75045;BME280;63614;56.026;35.960;2023-07-20T05:48:17;97981.22;;;31.58;28.09
75045;BME280;63614;56.026;35.960;2023-07-20T05:50:43;97977.59;;;31.23;27.92
75045;BME280;63614;56.026;35.960;2023-07-20T05:53:09;97981.19;;;31.31;27.22
75045;BME280;63614;56.026;35.960;2023-07-20T05:55:34;97982.94;;;31.46;27.86
75045;BME280;63614;56.026;35.960;2023-07-20T05:58:00;97979.91;;;31.75;27.71
75045;BME280;63614;56.026;35.960;2023-07-20T06:00:26;97981.28;;;32.18;26.22
75045;BME280;63614;56.026;35.960;2023-07-20T06:02:53;97975.06;;;31.57;27.25
75045;BME280;63614;56.026;35.960;2023-07-20T06:05:21;97967.47;;;31.40;27.53
75045;BME280;63614;56.026;35.960;2023-07-20T06:07:47;97976.28;;;31.90;26.98
75045;BME280;63614;56.026;35.960;2023-07-20T06:10:13;97969.50;;;30.77;28.44
75045;BME280;63614;56.026;35.960;2023-07-20T06:12:38;97980.19;;;30.54;28.72
75045;BME280;63614;56.026;35.960;2023-07-20T06:15:05;97969.41;;;30.50;28.95
75045;BME280;63614;56.026;35.960;2023-07-20T06:17:32;97981.25;;;30.69;28.50
75045;BME280;63614;56.026;35.960;2023-07-20T06:19:58;97970.94;;;29.25;29.66
75045;BME280;63614;56.026;35.960;2023-07-20T06:22:23;97983.53;;;28.24;31.52
75045;BME280;63614;56.026;35.960;2023-07-20T06:24:49;97982.44;;;28.13;32.75
75045;BME280;63614;56.026;35.960;2023-07-20T06:27:15;97982.97;;;26.61;35.01
75045;BME280;63614;56.026;35.960;2023-07-20T06:29:41;97984.81;;;26.06;35.63
75045;BME280;63614;56.026;35.960;2023-07-20T06:32:07;97976.94;;;25.12;37.16
75045;BME280;63614;56.026;35.960;2023-07-20T06:34:33;97976.00;;;25.08;39.27
75045;BME280;63614;56.026;35.960;2023-07-20T06:37:03;97972.75;;;25.02;39.62
75045;BME280;63614;56.026;35.960;2023-07-20T06:39:29;97976.25;;;24.59;40.49
75045;BME280;63614;56.026;35.960;2023-07-20T06:41:55;97975.28;;;24.63;40.31
75045;BME280;63614;56.026;35.960;2023-07-20T06:44:21;97981.69;;;24.80;40.54
75045;BME280;63614;56.026;35.960;2023-07-20T06:46:46;97977.16;;;24.80;41.51
75045;BME280;63614;56.026;35.960;2023-07-20T06:49:24;97978.59;;;24.60;40.84
75045;BME280;63614;56.026;35.960;2023-07-20T06:51:49;97992.81;;;24.64;41.45
75045;BME280;63614;56.026;35.960;2023-07-20T06:54:15;97982.34;;;24.77;40.26
75045;BME280;63614;56.026;35.960;2023-07-20T06:56:41;97986.22;;;24.36;42.80
75045;BME280;63614;56.026;35.960;2023-07-20T06:59:07;97979.22;;;24.40;40.88
75045;BME280;63614;56.026;35.960;2023-07-20T07:01:32;97985.63;;;24.30;42.07
75045;BME280;63614;56.026;35.960;2023-07-20T07:03:58;97978.44;;;23.24;42.81
75045;BME280;63614;56.026;35.960;2023-07-20T07:06:24;97975.59;;;22.89;43.85
75045;BME280;63614;56.026;35.960;2023-07-20T07:08:51;97984.34;;;22.90;43.96
75045;BME280;63614;56.026;35.960;2023-07-20T07:11:17;97990.22;;;22.64;45.38
75045;BME280;63614;56.026;35.960;2023-07-20T07:13:43;97992.91;;;23.09;45.29
75045;BME280;63614;56.026;35.960;2023-07-20T07:16:14;97992.34;;;22.98;44.98
75045;BME280;63614;56.026;35.960;2023-07-20T07:18:44;97985.22;;;22.62;44.62
75045;BME280;63614;56.026;35.960;2023-07-20T07:21:10;97988.84;;;22.44;44.38
75045;BME280;63614;56.026;35.960;2023-07-20T07:23:37;97992.66;;;22.52;44.32
75045;BME280;63614;56.026;35.960;2023-07-20T07:26:03;98000.09;;;22.49;44.74
75045;BME280;63614;56.026;35.960;2023-07-20T07:28:29;97986.31;;;22.39;44.87
75045;BME280;63614;56.026;35.960;2023-07-20T07:30:55;97990.78;;;22.52;45.27
75045;BME280;63614;56.026;35.960;2023-07-20T07:33:22;97989.59;;;22.58;44.96
75045;BME280;63614;56.026;35.960;2023-07-20T07:35:49;97989.09;;;22.20;46.23
75045;BME280;63614;56.026;35.960;2023-07-20T07:38:18;97994.34;;;22.34;45.87
75045;BME280;63614;56.026;35.960;2023-07-20T07:40:44;97997.69;;;22.25;46.13
75045;BME280;63614;56.026;35.960;2023-07-20T07:43:10;97995.53;;;22.27;45.76
75045;BME280;63614;56.026;35.960;2023-07-20T07:45:35;98000.69;;;22.46;45.46
75045;BME280;63614;56.026;35.960;2023-07-20T07:48:07;98000.69;;;22.46;44.34
75045;BME280;63614;56.026;35.960;2023-07-20T07:50:34;97998.50;;;22.85;44.56
75045;BME280;63614;56.026;35.960;2023-07-20T07:53:00;97996.28;;;23.32;42.59
75045;BME280;63614;56.026;35.960;2023-07-20T07:55:25;98000.88;;;23.18;42.87
75045;BME280;63614;56.026;35.960;2023-07-20T07:57:54;98000.41;;;23.47;41.36
75045;BME280;63614;56.026;35.960;2023-07-20T08:00:20;98002.63;;;23.63;41.36
75045;BME280;63614;56.026;35.960;2023-07-20T08:03:06;98000.91;;;23.58;42.57
75045;BME280;63614;56.026;35.960;2023-07-20T08:05:33;98002.06;;;23.74;41.57
75045;BME280;63614;56.026;35.960;2023-07-20T08:08:04;97996.03;;;23.51;42.59
75045;BME280;63614;56.026;35.960;2023-07-20T08:10:30;97995.66;;;23.35;43.12
75045;BME280;63614;56.026;35.960;2023-07-20T08:12:59;98006.72;;;23.29;42.71
75045;BME280;63614;56.026;35.960;2023-07-20T08:15:24;97997.38;;;23.31;42.99
75045;BME280;63614;56.026;35.960;2023-07-20T08:17:50;97993.84;;;23.13;42.79
75045;BME280;63614;56.026;35.960;2023-07-20T08:20:17;97994.28;;;23.38;43.78
75045;BME280;63614;56.026;35.960;2023-07-20T08:22:43;97998.38;;;23.44;43.44
75045;BME280;63614;56.026;35.960;2023-07-20T08:25:09;97993.38;;;23.51;42.26
75045;BME280;63614;56.026;35.960;2023-07-20T08:27:36;98000.81;;;23.40;42.31
75045;BME280;63614;56.026;35.960;2023-07-20T08:30:02;98002.16;;;23.52;43.05
75045;BME280;63614;56.026;35.960;2023-07-20T08:32:30;98007.16;;;23.22;42.34
75045;BME280;63614;56.026;35.960;2023-07-20T08:34:55;97994.56;;;23.68;42.45
75045;BME280;63614;56.026;35.960;2023-07-20T08:37:22;97997.06;;;23.73;41.64
75045;BME280;63614;56.026;35.960;2023-07-20T08:39:48;97998.78;;;23.78;42.65
75045;BME280;63614;56.026;35.960;2023-07-20T08:42:14;97999.97;;;23.54;42.62
75045;BME280;63614;56.026;35.960;2023-07-20T08:44:41;98006.94;;;23.90;41.89
75045;BME280;63614;56.026;35.960;2023-07-20T08:47:08;98006.84;;;24.04;42.59
75045;BME280;63614;56.026;35.960;2023-07-20T08:49:35;98008.72;;;24.03;42.00
75045;BME280;63614;56.026;35.960;2023-07-20T08:52:01;97997.84;;;23.33;41.12
75045;BME280;63614;56.026;35.960;2023-07-20T08:54:32;98001.06;;;22.99;42.61
75045;BME280;63614;56.026;35.960;2023-07-20T08:57:01;97997.78;;;22.71;43.13
75045;BME280;63614;56.026;35.960;2023-07-20T08:59:29;97998.91;;;22.56;43.36
75045;BME280;63614;56.026;35.960;2023-07-20T09:01:59;97996.75;;;22.58;43.94
75045;BME280;63614;56.026;35.960;2023-07-20T09:04:25;98005.47;;;22.36;44.29
75045;BME280;63614;56.026;35.960;2023-07-20T09:06:51;98005.03;;;22.28;45.45
75045;BME280;63614;56.026;35.960;2023-07-20T09:09:17;97999.41;;;22.58;43.62
75045;BME280;63614;56.026;35.960;2023-07-20T09:11:46;97997.88;;;22.43;44.15
75045;BME280;63614;56.026;35.960;2023-07-20T09:14:11;97994.69;;;23.00;43.83
75045;BME280;63614;56.026;35.960;2023-07-20T09:16:52;98000.13;;;23.17;43.25
75045;BME280;63614;56.026;35.960;2023-07-20T09:19:18;97996.19;;;23.15;44.94
75045;BME280;63614;56.026;35.960;2023-07-20T09:21:53;97995.72;;;22.90;43.76
75045;BME280;63614;56.026;35.960;2023-07-20T09:24:19;97995.81;;;22.62;44.18
75045;BME280;63614;56.026;35.960;2023-07-20T09:26:47;97996.75;;;22.58;44.83
75045;BME280;63614;56.026;35.960;2023-07-20T09:29:20;98002.19;;;22.75;44.61
75045;BME280;63614;56.026;35.960;2023-07-20T09:32:04;97999.44;;;22.89;45.34
75045;BME280;63614;56.026;35.960;2023-07-20T09:34:31;97996.06;;;22.75;45.88
75045;BME280;63614;56.026;35.960;2023-07-20T09:39:23;97997.59;;;22.90;46.89
75045;BME280;63614;56.026;35.960;2023-07-20T09:41:49;97994.84;;;23.03;45.98
75045;BME280;63614;56.026;35.960;2023-07-20T09:44:16;97999.81;;;22.96;46.98
75045;BME280;63614;56.026;35.960;2023-07-20T09:46:46;97996.50;;;22.68;47.25
75045;BME280;63614;56.026;35.960;2023-07-20T09:49:13;98000.94;;;22.36;48.44
75045;BME280;63614;56.026;35.960;2023-07-20T09:51:40;98005.91;;;21.59;53.90
75045;BME280;63614;56.026;35.960;2023-07-20T09:54:07;98009.38;;;20.94;55.19
75045;BME280;63614;56.026;35.960;2023-07-20T09:56:34;98033.75;;;20.34;59.67
75045;BME280;63614;56.026;35.960;2023-07-20T09:59:00;98041.34;;;20.41;56.94
75045;BME280;63614;56.026;35.960;2023-07-20T10:01:27;98047.25;;;20.51;56.18
75045;BME280;63614;56.026;35.960;2023-07-20T10:03:56;98049.81;;;20.76;57.42
75045;BME280;63614;56.026;35.960;2023-07-20T10:06:28;98045.34;;;20.76;55.10
75045;BME280;63614;56.026;35.960;2023-07-20T10:09:00;98043.09;;;20.83;57.87
75045;BME280;63614;56.026;35.960;2023-07-20T10:11:30;98040.44;;;21.02;56.46
75045;BME280;63614;56.026;35.960;2023-07-20T10:13:58;98046.09;;;21.29;56.20
75045;BME280;63614;56.026;35.960;2023-07-20T10:16:39;98056.75;;;21.56;54.70
75045;BME280;63614;56.026;35.960;2023-07-20T10:19:42;98056.84;;;21.51;53.16
75045;BME280;63614;56.026;35.960;2023-07-20T10:22:36;98065.91;;;20.79;54.27
75045;BME280;63614;56.026;35.960;2023-07-20T10:25:02;98069.84;;;20.39;54.91
75045;BME280;63614;56.026;35.960;2023-07-20T10:27:30;98054.22;;;19.99;55.59
75045;BME280;63614;56.026;35.960;2023-07-20T10:29:57;98043.75;;;19.94;54.88
75045;BME280;63614;56.026;35.960;2023-07-20T10:32:26;98050.53;;;20.00;53.47
75045;BME280;63614;56.026;35.960;2023-07-20T10:34:52;98047.81;;;20.05;53.22
75045;BME280;63614;56.026;35.960;2023-07-20T10:37:49;98050.28;;;20.21;54.95
75045;BME280;63614;56.026;35.960;2023-07-20T10:40:38;98045.81;;;20.40;55.66
75045;BME280;63614;56.026;35.960;2023-07-20T10:43:09;98046.66;;;20.55;56.61
75045;BME280;63614;56.026;35.960;2023-07-20T10:48:12;98046.28;;;20.85;54.89
75045;BME280;63614;56.026;35.960;2023-07-20T10:50:40;98041.72;;;21.05;53.43
75045;BME280;63614;56.026;35.960;2023-07-20T10:53:16;98041.16;;;21.08;54.81
75045;BME280;63614;56.026;35.960;2023-07-20T10:55:42;98046.28;;;20.85;56.55
75045;BME280;63614;56.026;35.960;2023-07-20T10:58:15;98044.81;;;20.93;56.20
75045;BME280;63614;56.026;35.960;2023-07-20T11:01:00;98047.25;;;20.71;56.47
75045;BME280;63614;56.026;35.960;2023-07-20T11:03:32;98056.78;;;20.72;56.29
75045;BME280;63614;56.026;35.960;2023-07-20T11:05:58;98049.22;;;20.98;58.54
75045;BME280;63614;56.026;35.960;2023-07-20T11:08:42;98061.41;;;21.32;58.70
75045;BME280;63614;56.026;35.960;2023-07-20T11:14:22;98059.09;;;21.25;58.57
75045;BME280;63614;56.026;35.960;2023-07-20T11:16:48;98040.97;;;21.04;58.51
75045;BME280;63614;56.026;35.960;2023-07-20T11:19:25;98044.31;;;20.91;56.97
75045;BME280;63614;56.026;35.960;2023-07-20T11:21:57;98062.06;;;20.72;59.13
75045;BME280;63614;56.026;35.960;2023-07-20T11:24:23;98055.22;;;20.27;60.62
75045;BME280;63614;56.026;35.960;2023-07-20T11:26:53;98060.03;;;19.77;64.25
75045;BME280;63614;56.026;35.960;2023-07-20T11:29:21;98061.75;;;19.63;65.37
75045;BME280;63614;56.026;35.960;2023-07-20T11:31:49;98048.69;;;19.76;65.22
75045;BME280;63614;56.026;35.960;2023-07-20T11:34:19;98055.47;;;19.83;65.39
75045;BME280;63614;56.026;35.960;2023-07-20T11:36:47;98044.41;;;20.05;63.49
75045;BME280;63614;56.026;35.960;2023-07-20T11:39:15;98054.09;;;20.33;63.43
75045;BME280;63614;56.026;35.960;2023-07-20T11:41:47;98047.06;;;20.67;62.47
75045;BME280;63614;56.026;35.960;2023-07-20T11:44:18;98049.53;;;20.77;61.11
75045;BME280;63614;56.026;35.960;2023-07-20T11:47:03;98056.44;;;21.11;60.62
75045;BME280;63614;56.026;35.960;2023-07-20T11:49:30;98058.09;;;21.07;57.75
75045;BME280;63614;56.026;35.960;2023-07-20T11:52:03;98049.72;;;21.19;57.63
75045;BME280;63614;56.026;35.960;2023-07-20T11:54:30;98048.78;;;21.10;57.34
75045;BME280;63614;56.026;35.960;2023-07-20T11:56:55;98060.03;;;20.63;57.18
75045;BME280;63614;56.026;35.960;2023-07-20T11:59:21;98077.97;;;19.99;58.71
75045;BME280;63614;56.026;35.960;2023-07-20T12:01:49;98083.00;;;19.71;61.29
75045;BME280;63614;56.026;35.960;2023-07-20T12:04:15;98082.78;;;19.68;61.87
75045;BME280;63614;56.026;35.960;2023-07-20T12:06:43;98083.41;;;19.59;62.05
75045;BME280;63614;56.026;35.960;2023-07-20T12:09:17;98085.47;;;19.63;62.07
75045;BME280;63614;56.026;35.960;2023-07-20T12:11:43;98080.00;;;19.83;59.88
75045;BME280;63614;56.026;35.960;2023-07-20T12:14:11;98073.72;;;20.03;60.79
75045;BME280;63614;56.026;35.960;2023-07-20T12:16:37;98081.81;;;20.12;57.13
75045;BME280;63614;56.026;35.960;2023-07-20T12:19:10;98084.31;;;20.22;58.06
75045;BME280;63614;56.026;35.960;2023-07-20T12:21:38;98077.28;;;20.37;58.58
75045;BME280;63614;56.026;35.960;2023-07-20T12:24:06;98084.50;;;20.50;57.25
75045;BME280;63614;56.026;35.960;2023-07-20T12:26:37;98088.28;;;20.25;60.20
75045;BME280;63614;56.026;35.960;2023-07-20T12:29:03;98078.94;;;20.08;60.55
75045;BME280;63614;56.026;35.960;2023-07-20T12:31:29;98083.94;;;19.86;57.17
75045;BME280;63614;56.026;35.960;2023-07-20T12:33:58;98084.91;;;19.95;58.17
75045;BME280;63614;56.026;35.960;2023-07-20T12:36:24;98075.41;;;19.94;53.08
75045;BME280;63614;56.026;35.960;2023-07-20T12:38:50;98085.41;;;19.97;53.08
75045;BME280;63614;56.026;35.960;2023-07-20T12:41:16;98079.41;;;20.16;52.99
75045;BME280;63614;56.026;35.960;2023-07-20T12:43:44;98076.91;;;20.24;52.47
75045;BME280;63614;56.026;35.960;2023-07-20T12:46:10;98087.09;;;20.12;49.78
75045;BME280;63614;56.026;35.960;2023-07-20T12:48:37;98090.81;;;19.87;51.24
75045;BME280;63614;56.026;35.960;2023-07-20T12:51:04;98082.88;;;19.87;51.67
75045;BME280;63614;56.026;35.960;2023-07-20T12:53:32;98078.88;;;19.89;51.33
75045;BME280;63614;56.026;35.960;2023-07-20T12:55:58;98083.31;;;19.94;51.07
75045;BME280;63614;56.026;35.960;2023-07-20T12:58:24;98076.91;;;20.00;51.33
75045;BME280;63614;56.026;35.960;2023-07-20T13:00:50;98076.03;;;20.10;51.78
75045;BME280;63614;56.026;35.960;2023-07-20T13:03:16;98066.66;;;19.99;51.40
75045;BME280;63614;56.026;35.960;2023-07-20T13:05:44;98073.38;;;19.86;49.08
75045;BME280;63614;56.026;35.960;2023-07-20T13:08:12;98079.06;;;19.69;50.06
75045;BME280;63614;56.026;35.960;2023-07-20T13:10:38;98073.50;;;19.70;49.89